Time;durP1;ratioP1;P1;durP2;ratioP2;P2;SDS_P1;SDS_P2;PMS_P1;PMS_P2;Temp;Humidity;BMP_temperature;BMP_pressure;BME280_temperature;BME280_humidity;BME280_pressure;Samples;Min_cycle;Max_cycle;Signal;HPM_P1;HPM_P2
2020/12/24 00:00:41;2380619.00;7.94;4437.40;27918.00;0.09;48.98;;;;;27.60;37.60;;;;;;2258435;61;5339;-66
2020/12/24 00:03:11;121962720.00;406.54;73494544.00;50770.00;0.17;88.52;;;;;27.80;37.60;;;;;;2259856;61;7402;-66
2020/12/24 00:05:37;2169322.00;7.23;3977.99;52136.00;0.17;90.88;;;;;27.80;37.30;;;;;;2258428;61;7109;-67
2020/12/24 00:08:04;1020330.00;3.40;1768.51;25427.00;0.08;44.67;;;;;27.80;37.10;;;;;;2258655;61;3962;-67
2020/12/24 00:10:31;2122313.00;7.07;3878.57;55136.00;0.18;96.07;;;;;27.80;37.00;;;;;;2258739;61;5288;-67
2020/12/24 00:12:58;1683768.00;5.61;2993.93;14659.00;0.05;26.02;;;;;27.80;37.10;;;;;;2258759;61;5603;-67
2020/12/24 00:15:24;1906389.00;6.35;3433.85;31404.00;0.10;55.01;;;;;27.70;37.20;;;;;;2255697;61;5684;-67
2020/12/24 00:17:50;2413028.00;8.04;4509.78;105723.00;0.35;183.45;;;;;27.70;37.30;;;;;;2258196;61;5844;-66
2020/12/24 00:20:17;2245004.00;7.48;4140.14;26833.00;0.09;47.10;;;;;27.70;37.30;;;;;;2258070;61;5219;-66
2020/12/24 00:22:43;1757534.00;5.86;3137.77;14556.00;0.05;25.84;;;;;27.60;37.40;;;;;;2256027;61;4087;-66
2020/12/24 00:25:09;1739972.00;5.80;3103.36;22049.00;0.07;38.82;;;;;27.50;37.40;;;;;;2255912;61;5417;-66
2020/12/24 00:27:36;2256717.00;7.52;4165.47;23960.00;0.08;42.13;;;;;27.50;37.40;;;;;;2257869;61;4010;-66
2020/12/24 00:30:03;1803349.00;6.01;3228.04;42167.00;0.14;73.64;;;;;27.40;37.60;;;;;;2255719;61;5496;-65
2020/12/24 00:32:30;2171267.00;7.24;3982.13;11743.00;0.04;20.97;;;;;27.40;37.70;;;;;;2256584;61;6983;-65
2020/12/24 00:34:56;1588508.00;5.30;2810.80;24828.00;0.08;43.63;;;;;27.30;37.80;;;;;;2251802;61;7653;-66
2020/12/24 00:37:22;1920963.00;6.40;3463.28;21144.00;0.07;37.25;;;;;27.30;37.80;;;;;;2255431;61;7463;-66
2020/12/24 00:39:49;2059158.00;6.86;3746.51;30571.00;0.10;53.57;;;;;27.20;37.80;;;;;;2254944;61;7036;-66
2020/12/24 00:42:15;117681232.00;392.27;66016568.00;19032.00;0.06;33.59;;;;;27.20;37.90;;;;;;2254562;61;7302;-66
2020/12/24 00:44:41;2023135.00;6.74;3671.94;12643.00;0.04;22.53;;;;;27.20;37.90;;;;;;2252313;61;7552;-66
2020/12/24 00:47:08;1818626.00;6.06;3258.31;18408.00;0.06;32.51;;;;;27.10;37.90;;;;;;2259187;61;5424;-65
2020/12/24 00:49:34;1922837.00;6.41;3467.07;73381.00;0.24;127.60;;;;;27.10;38.00;;;;;;2258973;61;7351;-65
2020/12/24 00:52:01;1815713.00;6.05;3252.53;4205.00;0.01;7.91;;;;;27.00;38.10;;;;;;2256056;61;6840;-66
2020/12/24 00:54:31;1909346.00;6.36;3439.81;73427.00;0.24;127.68;;;;;27.00;38.00;;;;;;2259243;61;2678;-66
2020/12/24 00:56:58;2123426.00;7.08;3880.92;137498.00;0.46;238.26;;;;;27.00;38.00;;;;;;2255375;61;5367;-66
2020/12/24 00:59:24;1580046.00;5.27;2794.67;35348.00;0.12;61.84;;;;;27.00;38.10;;;;;;2263808;60;5429;-66
2020/12/24 01:01:50;1401886.00;4.67;2459.82;47056.00;0.16;82.09;;;;;26.90;38.10;;;;;;2255238;61;3935;-65
2020/12/24 01:04:17;1224438.00;4.08;2134.47;0.00;0.00;0.62;;;;;26.90;38.10;;;;;;2259528;61;7302;-65
2020/12/24 01:06:47;1494029.00;4.98;2631.89;10254.00;0.03;18.39;;;;;26.90;38.20;;;;;;2258859;61;8291;-66
2020/12/24 01:09:13;1474341.00;4.91;2594.93;551.00;0.00;1.58;;;;;26.90;38.20;;;;;;2253507;61;7362;-66
2020/12/24 01:11:39;1371924.00;4.57;2404.35;67775.00;0.23;117.92;;;;;26.90;38.20;;;;;;2255139;61;5458;-66
2020/12/24 01:14:06;1589181.00;5.30;2812.08;51011.00;0.17;88.93;;;;;26.90;38.20;;;;;;2259814;61;7058;-66
2020/12/24 01:16:32;2078636.00;6.93;3787.06;19158.00;0.06;33.81;;;;;26.80;38.30;;;;;;2260152;61;3922;-66
2020/12/24 01:18:59;1689577.00;5.63;3005.19;91059.00;0.30;158.14;;;;;26.80;38.30;;;;;;2257899;61;5235;-65
2020/12/24 01:21:26;1418886.00;4.73;2491.40;5524.00;0.02;10.19;;;;;26.80;38.30;;;;;;2260088;61;5151;-65
2020/12/24 01:23:56;1624340.00;5.41;2879.35;0.00;0.00;0.62;;;;;26.80;38.20;;;;;;2258708;61;6557;-65
2020/12/24 01:26:23;994696.00;3.32;1723.08;0.00;0.00;0.62;;;;;26.80;38.20;;;;;;2256431;61;5264;-66
2020/12/24 01:28:49;1513498.00;5.04;2668.54;27118.00;0.09;47.59;;;;;26.70;38.40;;;;;;2259206;61;5345;-66
2020/12/24 01:31:19;1335043.00;4.45;2336.38;14830.00;0.05;26.32;;;;;26.80;38.30;;;;;;2258908;61;3932;-65
2020/12/24 01:33:46;1517450.00;5.06;2676.00;31146.00;0.10;54.57;;;;;26.70;38.30;;;;;;2258367;61;3771;-66
2020/12/24 01:36:12;2252195.00;7.51;4155.68;116952.00;0.39;202.82;;;;;26.70;38.40;;;;;;2251499;61;3922;-66
2020/12/24 01:38:40;1892645.00;6.31;3406.17;49607.00;0.17;86.51;;;;;26.70;38.30;;;;;;2255880;61;7020;-66
2020/12/24 01:41:06;2145461.00;7.15;3927.41;26456.00;0.09;46.45;;;;;26.60;38.40;;;;;;2257548;61;4421;-66
2020/12/24 01:43:36;1629932.00;5.43;2890.08;24407.00;0.08;42.90;;;;;26.60;38.50;;;;;;2258801;61;7368;-66
2020/12/24 01:46:03;1655768.00;5.52;2939.80;37054.00;0.12;64.79;;;;;26.60;38.50;;;;;;2253867;61;7121;-66
2020/12/24 01:48:33;121882144.00;406.27;73348840.00;50931.00;0.17;88.80;;;;;26.70;38.40;;;;;;2257543;61;5564;-66
2020/12/24 01:50:59;1632298.00;5.44;2894.63;59347.00;0.20;103.35;;;;;26.60;38.40;;;;;;2255772;61;7184;-66
2020/12/24 01:53:26;1407506.00;4.69;2470.25;32395.00;0.11;56.73;;;;;26.60;38.50;;;;;;2255835;61;3890;-66
2020/12/24 01:55:56;2035014.00;6.78;3696.47;57539.00;0.19;100.22;;;;;26.50;38.60;;;;;;2256679;61;5794;-66
2020/12/24 01:58:23;1705542.00;5.69;3036.20;18277.00;0.06;32.29;;;;;26.50;38.60;;;;;;2258816;61;7117;-65
2020/12/24 02:00:49;1521800.00;5.07;2684.21;18375.00;0.06;32.46;;;;;26.40;38.70;;;;;;2259216;61;7341;-65
2020/12/24 02:03:16;1618081.00;5.39;2867.34;90590.00;0.30;157.33;;;;;26.50;38.70;;;;;;2264936;40;4032;-70
2020/12/24 02:05:43;1528510.00;5.10;2696.88;0.00;0.00;0.62;;;;;26.50;38.60;;;;;;2248536;61;3950;-69
2020/12/24 02:08:15;1242104.00;4.14;2166.53;2089.00;0.01;4.24;;;;;26.50;38.70;;;;;;2247926;61;2467;-69
2020/12/24 02:10:41;1268553.00;4.23;2214.67;48032.00;0.16;83.78;;;;;26.50;38.70;;;;;;2257078;61;4574;-70
2020/12/24 02:13:07;1062440.00;3.54;1843.38;7945.00;0.03;14.39;;;;;26.40;38.80;;;;;;2247576;61;4817;-69
2020/12/24 02:15:38;720369.00;2.40;1242.58;0.00;0.00;0.62;;;;;26.40;38.70;;;;;;2254295;61;2316;-72
2020/12/24 02:18:04;963169.00;3.21;1667.35;0.00;0.00;0.62;;;;;26.40;38.70;;;;;;2256976;61;3547;-69
2020/12/24 02:20:31;1354114.00;4.51;2371.49;23823.00;0.08;41.89;;;;;26.40;38.80;;;;;;2251455;61;4017;-69
2020/12/24 02:22:57;807800.00;2.69;1394.73;0.00;0.00;0.62;;;;;26.40;38.70;;;;;;2250067;61;2341;-73
2020/12/24 02:25:34;1258010.00;4.19;2195.46;102.00;0.00;0.80;;;;;26.50;38.60;;;;;;2255041;61;3972;-68
2020/12/24 02:28:01;1177721.00;3.93;2049.99;0.00;0.00;0.62;;;;;26.40;38.60;;;;;;2252056;61;2407;-69
2020/12/24 02:30:27;1394516.00;4.65;2446.16;0.00;0.00;0.62;;;;;26.40;38.60;;;;;;2257556;61;2282;-69
2020/12/24 02:32:53;950409.00;3.17;1644.83;0.00;0.00;0.62;;;;;26.30;38.70;;;;;;2258091;61;2262;-70
2020/12/24 02:35:19;1383594.00;4.61;2425.93;1854.00;0.01;3.83;;;;;26.30;38.70;;;;;;2257201;61;2273;-72
2020/12/24 02:37:46;1358968.00;4.53;2380.44;0.00;0.00;0.62;;;;;26.30;38.70;;;;;;2254146;61;2286;-70
2020/12/24 02:40:12;1474737.00;4.92;2595.67;53530.00;0.18;93.29;;;;;26.30;38.70;;;;;;2246228;61;2693;-69
2020/12/24 02:42:38;1521615.00;5.07;2683.86;15899.00;0.05;28.17;;;;;26.30;38.80;;;;;;2255482;61;2517;-71
2020/12/24 02:45:06;1413154.00;4.71;2480.74;51313.00;0.17;89.46;;;;;26.30;38.80;;;;;;2254463;61;3575;-70
2020/12/24 02:47:36;1321801.00;4.41;2312.06;4425.00;0.01;8.29;;;;;26.30;38.70;;;;;;2255420;61;2443;-70
2020/12/24 02:50:07;1329827.00;4.43;2326.80;36710.00;0.12;64.20;;;;;26.30;38.70;;;;;;2256975;61;2308;-70
2020/12/24 02:52:35;123614080.00;412.05;76523368.00;6058.00;0.02;11.12;;;;;26.30;38.70;;;;;;2253627;61;3674;-70
2020/12/24 02:55:03;1447414.00;4.82;2544.55;9752.00;0.03;17.52;;;;;26.30;38.80;;;;;;2256185;61;5471;-69
2020/12/24 02:57:29;1321567.00;4.41;2311.63;0.00;0.00;0.62;;;;;26.30;38.80;;;;;;2251507;61;4085;-69
2020/12/24 03:00:08;864593.00;2.88;1494.02;16526.00;0.06;29.25;;;;;26.20;38.70;;;;;;2257787;61;3535;-70
2020/12/24 03:02:35;1687172.00;5.62;3000.53;0.00;0.00;0.62;;;;;26.20;38.80;;;;;;2255263;61;2302;-70
2020/12/24 03:05:09;1354022.00;4.51;2371.32;7610.00;0.03;13.81;;;;;26.30;38.80;;;;;;2252789;61;2391;-69
2020/12/24 03:07:36;1080711.00;3.60;1875.96;6511.00;0.02;11.90;;;;;26.30;38.70;;;;;;2242713;61;3575;-69
2020/12/24 03:10:05;1028771.00;3.43;1783.50;0.00;0.00;0.62;;;;;26.20;38.80;;;;;;2250588;61;2323;-70
2020/12/24 03:12:35;1022874.00;3.41;1773.03;0.00;0.00;0.62;;;;;26.20;38.90;;;;;;2251157;61;3710;-72
2020/12/24 03:15:01;1090276.00;3.63;1893.04;8262.00;0.03;14.94;;;;;26.20;38.70;;;;;;2254994;61;2427;-70
2020/12/24 03:17:28;1596402.00;5.32;2825.86;7578.00;0.03;13.75;;;;;26.20;38.90;;;;;;2251366;61;3340;-70
2020/12/24 03:20:07;1260018.00;4.20;2199.12;13983.00;0.05;24.85;;;;;26.20;38.70;;;;;;2252362;61;3948;-69
2020/12/24 03:22:34;911477.00;3.04;1576.29;0.00;0.00;0.62;;;;;26.20;38.70;;;;;;2250571;61;3334;-69
2020/12/24 03:25:02;1373279.00;4.58;2406.86;10719.00;0.04;19.19;;;;;26.20;38.70;;;;;;2253888;61;2611;-70
2020/12/24 03:27:29;1016078.00;3.39;1760.97;17345.00;0.06;30.67;;;;;26.30;38.70;;;;;;2251275;61;2395;-70
2020/12/24 03:29:55;1365210.00;4.55;2391.95;7133.00;0.02;12.98;;;;;26.20;38.70;;;;;;2259247;61;3454;-69
2020/12/24 03:32:22;1560543.00;5.20;2757.57;6639.00;0.02;12.13;;;;;26.20;38.70;;;;;;2255798;61;2349;-69
2020/12/24 03:34:48;1399031.00;4.66;2454.53;27624.00;0.09;48.47;;;;;26.20;38.70;;;;;;2250431;61;3914;-70
2020/12/24 03:37:15;1341551.00;4.47;2348.35;0.00;0.00;0.62;;;;;26.20;38.70;;;;;;2254855;61;3933;-69
2020/12/24 03:39:41;1064545.00;3.55;1847.13;0.00;0.00;0.62;;;;;26.20;38.70;;;;;;2253260;61;3474;-69
2020/12/24 03:42:09;807672.00;2.69;1394.51;0.00;0.00;0.62;;;;;26.20;38.60;;;;;;2254627;61;2522;-69
2020/12/24 03:44:36;1527676.00;5.09;2695.31;0.00;0.00;0.62;;;;;26.20;38.70;;;;;;2254033;61;3951;-69
2020/12/24 03:47:03;1285458.00;4.28;2245.52;0.00;0.00;0.62;;;;;26.20;38.80;;;;;;2251165;61;4126;-69
2020/12/24 03:49:31;1293899.00;4.31;2260.94;33119.00;0.11;57.98;;;;;26.20;38.70;;;;;;2253784;61;3927;-70
2020/12/24 03:51:57;1425498.00;4.75;2503.70;11868.00;0.04;21.19;;;;;26.20;38.70;;;;;;2256452;61;4232;-70
2020/12/24 03:54:24;1343302.00;4.48;2351.57;11656.00;0.04;20.82;;;;;26.10;38.70;;;;;;2257036;61;3944;-70
2020/12/24 03:56:50;968073.00;3.23;1676.01;0.00;0.00;0.62;;;;;26.10;38.70;;;;;;2252607;61;3965;-70
2020/12/24 03:59:20;1467590.00;4.89;2582.28;13595.00;0.05;24.18;;;;;26.20;39.40;;;;;;2254735;61;3898;-69
2020/12/24 04:01:50;1394589.00;4.65;2446.29;7235.00;0.02;13.16;;;;;26.10;38.70;;;;;;2253571;61;4078;-70
2020/12/24 04:04:17;1637659.00;5.46;2904.93;7773.00;0.03;14.09;;;;;26.10;38.80;;;;;;2249564;61;3975;-69
2020/12/24 04:06:43;1961145.00;6.54;3544.84;205772.00;0.69;355.86;;;;;26.10;38.80;;;;;;2253391;61;4315;-71
2020/12/24 04:09:13;1177120.00;3.92;2048.91;0.00;0.00;0.62;;;;;26.10;38.70;;;;;;2254679;61;4006;-70
2020/12/24 04:11:40;1366778.00;4.56;2394.85;0.00;0.00;0.62;;;;;26.00;39.00;;;;;;2252947;61;4304;-72
2020/12/24 04:14:06;117518968.00;391.73;65743624.00;459.00;0.00;1.42;;;;;26.00;39.10;;;;;;2249351;61;4295;-70
2020/12/24 04:16:32;1477851.00;4.93;2601.51;0.00;0.00;0.62;;;;;26.10;38.90;;;;;;2257577;61;4006;-70
2020/12/24 04:18:58;1148932.00;3.83;1998.16;0.00;0.00;0.62;;;;;26.10;38.90;;;;;;2252315;61;4078;-69
2020/12/24 04:21:28;1404087.00;4.68;2463.91;0.00;0.00;0.62;;;;;26.10;39.00;;;;;;2253830;61;4420;-70
2020/12/24 04:23:54;1263505.00;4.21;2205.47;0.00;0.00;0.62;;;;;25.90;39.10;;;;;;2255566;61;4335;-70
2020/12/24 04:26:24;121295120.00;404.32;72293168.00;0.00;0.00;0.62;;;;;25.90;39.10;;;;;;2252859;61;3906;-70
2020/12/24 04:28:51;1018606.00;3.40;1765.45;0.00;0.00;0.62;;;;;26.00;39.10;;;;;;2252541;61;3946;-71
2020/12/24 04:31:21;1015317.00;3.38;1759.62;30731.00;0.10;53.85;;;;;25.90;39.10;;;;;;2253592;61;3876;-70
2020/12/24 04:33:47;1307473.00;4.36;2285.79;26235.00;0.09;46.07;;;;;26.00;39.10;;;;;;2253794;61;4004;-70
2020/12/24 04:36:14;1445145.00;4.82;2540.32;53555.00;0.18;93.33;;;;;25.90;39.10;;;;;;2253482;61;4034;-70
2020/12/24 04:38:48;1155109.00;3.85;2009.26;12487.00;0.04;22.26;;;;;25.90;39.10;;;;;;2255385;61;4079;-72
2020/12/24 04:41:14;1120143.00;3.73;1946.48;8541.00;0.03;15.42;;;;;25.90;39.10;;;;;;2256226;61;5689;-69
2020/12/24 04:43:41;857020.00;2.86;1480.75;5098.00;0.02;9.46;;;;;26.00;39.00;;;;;;2256738;61;4199;-69
2020/12/24 04:46:09;1511262.00;5.04;2664.33;6447.00;0.02;11.79;;;;;26.00;39.00;;;;;;2245981;61;4075;-70
2020/12/24 04:48:39;1896644.00;6.32;3414.21;7212.00;0.02;13.12;;;;;25.90;39.00;;;;;;2253370;61;4104;-71
2020/12/24 04:51:16;1182191.00;3.94;2058.05;12102.00;0.04;21.59;;;;;25.90;39.10;;;;;;2253597;61;4424;-70
2020/12/24 04:53:44;1360594.00;4.54;2383.44;34283.00;0.11;60.00;;;;;25.80;39.10;;;;;;2249292;61;4114;-70
2020/12/24 04:56:10;1588378.00;5.29;2810.55;9148.00;0.03;16.47;;;;;25.90;39.10;;;;;;2253879;61;2913;-71
2020/12/24 04:58:40;1426187.00;4.75;2504.98;0.00;0.00;0.62;;;;;25.80;39.10;;;;;;2257219;61;3988;-70
2020/12/24 05:01:16;1183074.00;3.94;2059.65;8727.00;0.03;15.74;;;;;25.90;39.00;;;;;;2254029;61;4154;-69
2020/12/24 05:03:43;1244621.00;4.15;2171.11;29937.00;0.10;52.47;;;;;25.90;39.00;;;;;;2255883;61;4341;-71
2020/12/24 05:06:14;1547724.00;5.16;2733.25;5913.00;0.02;10.87;;;;;26.00;39.00;;;;;;2249517;61;4325;-71
2020/12/24 05:08:40;1164068.00;3.88;2025.39;0.00;0.00;0.62;;;;;26.00;38.90;;;;;;2249871;61;4061;-69
2020/12/24 05:11:09;887233.00;2.96;1533.71;1568.00;0.01;3.34;;;;;25.90;38.90;;;;;;2252096;61;4197;-69
2020/12/24 05:13:36;1231783.00;4.11;2147.79;0.00;0.00;0.62;;;;;25.90;39.00;;;;;;2256472;61;4072;-69
2020/12/24 05:16:15;1331480.00;4.44;2329.83;47389.00;0.16;82.67;;;;;25.90;39.00;;;;;;2250456;61;3943;-72
2020/12/24 05:18:43;1035312.00;3.45;1795.11;0.00;0.00;0.62;;;;;25.90;38.90;;;;;;2252090;61;3917;-72
2020/12/24 05:21:10;773609.00;2.58;1335.14;0.00;0.00;0.62;;;;;25.90;39.00;;;;;;2256209;61;4162;-70
2020/12/24 05:23:39;1098346.00;3.66;1907.47;30490.00;0.10;53.43;;;;;25.90;39.00;;;;;;2250412;61;4120;-69
2020/12/24 05:26:19;1125091.00;3.75;1955.35;11600.00;0.04;20.72;;;;;25.90;39.00;;;;;;2253713;61;3898;-72
2020/12/24 05:28:46;127799968.00;426.00;84571512.00;0.00;0.00;0.62;;;;;25.90;38.90;;;;;;2254256;61;4429;-69
2020/12/24 05:31:31;1341782.00;4.47;2348.78;24275.00;0.08;42.67;;;;;25.90;38.90;;;;;;2253915;61;4096;-70
2020/12/24 05:33:57;1294298.00;4.31;2261.67;2066.00;0.01;4.20;;;;;26.00;38.90;;;;;;2252373;61;3941;-70
2020/12/24 05:36:24;1135480.00;3.78;1973.99;0.00;0.00;0.62;;;;;26.00;38.80;;;;;;2252574;61;4055;-70
2020/12/24 05:38:52;1247625.00;4.16;2176.57;0.00;0.00;0.62;;;;;26.00;38.80;;;;;;2250151;61;4203;-70
2020/12/24 05:41:36;1492344.00;4.97;2628.72;0.00;0.00;0.62;;;;;25.90;38.80;;;;;;2253433;61;4071;-70
2020/12/24 05:44:05;1386409.00;4.62;2431.14;4475.00;0.01;8.38;;;;;25.90;38.90;;;;;;2256159;61;4032;-70
2020/12/24 05:46:46;972960.00;3.24;1684.64;0.00;0.00;0.62;;;;;25.90;39.00;;;;;;2256930;61;3825;-69
2020/12/24 05:49:15;1636090.00;5.45;2901.91;16290.00;0.05;28.84;;;;;25.90;38.90;;;;;;2249047;61;4156;-70
2020/12/24 05:51:58;1179240.00;3.93;2052.73;0.00;0.00;0.62;;;;;25.90;38.90;;;;;;2256372;61;3963;-69
2020/12/24 05:54:30;1180107.00;3.93;2054.29;0.00;0.00;0.62;;;;;25.80;39.00;;;;;;2253753;61;3855;-70
2020/12/24 05:56:58;1226525.00;4.09;2138.25;0.00;0.00;0.62;;;;;25.90;39.00;;;;;;2252170;61;4150;-70
2020/12/24 05:59:29;951812.00;3.17;1647.31;3723.00;0.01;7.07;;;;;25.80;38.90;;;;;;2254161;61;3818;-69
2020/12/24 06:01:59;118820672.00;396.07;67954560.00;0.00;0.00;0.62;;;;;25.80;38.90;;;;;;2246226;61;4253;-70
2020/12/24 06:04:46;917378.00;3.06;1586.66;0.00;0.00;0.62;;;;;25.90;38.90;;;;;;2256671;61;4130;-73
2020/12/24 06:07:19;943781.00;3.15;1633.15;0.00;0.00;0.62;;;;;25.90;38.90;;;;;;2253413;61;4061;-69
2020/12/24 06:09:51;918250.00;3.06;1588.20;54721.00;0.18;95.35;;;;;26.00;39.10;;;;;;2253481;61;4039;-69
2020/12/24 06:12:26;862582.00;2.88;1490.49;0.00;0.00;0.62;;;;;25.90;38.80;;;;;;2257194;61;4355;-70
2020/12/24 06:15:02;844053.00;2.81;1458.06;0.00;0.00;0.62;;;;;25.80;39.00;;;;;;2254041;61;4097;-70
2020/12/24 06:17:30;1029375.00;3.43;1784.57;38097.00;0.13;66.60;;;;;25.80;38.90;;;;;;2254821;61;4003;-71
2020/12/24 06:19:57;901866.00;3.01;1559.40;16663.00;0.06;29.49;;;;;25.80;38.90;;;;;;2249913;61;4201;-69
2020/12/24 06:22:27;905914.00;3.02;1566.51;7680.00;0.03;13.93;;;;;25.80;39.20;;;;;;2255240;61;2923;-68
2020/12/24 06:25:01;989839.00;3.30;1714.48;0.00;0.00;0.62;;;;;25.80;39.60;;;;;;2256128;61;2318;-72
2020/12/24 06:27:35;749615.00;2.50;1293.39;13486.00;0.04;23.99;;;;;25.80;39.90;;;;;;2254905;61;4820;-69
2020/12/24 06:30:12;991613.00;3.31;1717.62;0.00;0.00;0.62;;;;;25.90;39.70;;;;;;2258089;61;3517;-73
2020/12/24 06:32:45;1120032.00;3.73;1946.28;1847.00;0.01;3.82;;;;;26.00;39.40;;;;;;2254621;61;4031;-70
2020/12/24 06:35:12;1071406.00;3.57;1859.36;0.00;0.00;0.62;;;;;26.20;39.10;;;;;;2252796;61;2879;-70
2020/12/24 06:37:42;1611008.00;5.37;2853.79;0.00;0.00;0.62;;;;;26.40;38.70;;;;;;2254468;61;3993;-69
2020/12/24 06:40:27;1182580.00;3.94;2058.76;0.00;0.00;0.62;;;;;26.40;38.60;;;;;;2248297;61;2281;-70
2020/12/24 06:42:54;1328483.00;4.43;2324.33;18535.00;0.06;32.73;;;;;26.40;38.50;;;;;;2254933;61;3407;-71
2020/12/24 06:45:20;1678622.00;5.60;2983.96;13342.00;0.04;23.74;;;;;26.50;38.40;;;;;;2251942;61;2360;-70
2020/12/24 06:48:26;1087074.00;3.62;1887.32;3603.00;0.01;6.86;;;;;26.50;38.30;;;;;;2255123;61;2290;-70
2020/12/24 06:51:02;1127006.00;3.76;1958.79;12525.00;0.04;22.32;;;;;26.60;38.10;;;;;;2249768;61;2446;-70
2020/12/24 06:53:32;1187291.00;3.96;2067.26;0.00;0.00;0.62;;;;;26.60;38.10;;;;;;2246287;61;2351;-70
2020/12/24 06:56:22;1115445.00;3.72;1938.07;0.00;0.00;0.62;;;;;26.60;38.10;;;;;;2253283;61;2548;-69
2020/12/24 06:59:03;1044004.00;3.48;1810.57;0.00;0.00;0.62;;;;;26.60;38.00;;;;;;2254294;61;2763;-73
2020/12/24 07:01:31;1001177.00;3.34;1734.56;0.00;0.00;0.62;;;;;26.50;38.00;;;;;;2258683;61;2271;-69
2020/12/24 07:04:03;953810.00;3.18;1650.83;0.00;0.00;0.62;;;;;26.60;37.90;;;;;;2256411;61;2285;-72
2020/12/24 07:06:42;122827840.00;409.43;75071128.00;0.00;0.00;0.62;;;;;26.50;38.00;;;;;;2252372;61;2303;-73
2020/12/24 07:09:09;129504056.00;431.68;88003264.00;0.00;0.00;0.62;;;;;26.40;38.00;;;;;;2258996;61;3847;-71
2020/12/24 07:11:44;867693.00;2.89;1499.45;0.00;0.00;0.62;;;;;26.40;38.10;;;;;;2256220;61;4040;-70
2020/12/24 07:14:26;1050422.00;3.50;1821.98;0.00;0.00;0.62;;;;;26.50;37.90;;;;;;2255118;61;3551;-70
2020/12/24 07:16:54;1175977.00;3.92;2046.85;0.00;0.00;0.62;;;;;26.40;38.10;;;;;;2254280;61;3979;-70
2020/12/24 07:19:21;1472983.00;4.91;2592.39;5574.00;0.02;10.28;;;;;26.50;38.00;;;;;;2252924;61;3866;-69
2020/12/24 07:22:11;118261848.00;394.21;66999416.00;20865.00;0.07;36.77;;;;;26.50;38.00;;;;;;2255105;61;3538;-70
2020/12/24 07:24:37;957494.00;3.19;1657.33;0.00;0.00;0.62;;;;;26.50;38.00;;;;;;2255672;61;3915;-71
2020/12/24 07:27:05;932006.00;3.11;1612.40;0.00;0.00;0.62;;;;;26.40;38.00;;;;;;2253375;61;2643;-71
2020/12/24 07:29:33;781389.00;2.60;1348.69;32918.00;0.11;57.63;;;;;26.40;38.00;;;;;;2248301;61;4042;-70
2020/12/24 07:32:07;1051958.00;3.51;1824.72;9369.00;0.03;16.86;;;;;26.40;38.00;;;;;;2245008;61;2572;-74
2020/12/24 07:34:37;127699192.00;425.66;84371400.00;0.00;0.00;0.62;;;;;26.40;38.10;;;;;;2252907;61;2415;-71
2020/12/24 07:37:09;1080914.00;3.60;1876.32;0.00;0.00;0.62;;;;;26.40;38.10;;;;;;2255604;61;2306;-73
2020/12/24 07:39:35;837426.00;2.79;1446.47;0.00;0.00;0.62;;;;;26.40;38.10;;;;;;2254723;61;2281;-73
2020/12/24 07:42:02;808550.00;2.70;1396.04;0.00;0.00;0.62;;;;;26.40;38.10;;;;;;2255196;61;3836;-70
2020/12/24 07:44:29;1207109.00;4.02;2103.08;0.00;0.00;0.62;;;;;26.40;38.10;;;;;;2256536;61;3286;-70
2020/12/24 07:47:03;1250490.00;4.17;2181.78;8743.00;0.03;15.77;;;;;26.30;38.10;;;;;;2251551;61;3240;-71
2020/12/24 07:49:30;1446944.00;4.82;2543.68;3689.00;0.01;7.01;;;;;26.30;38.10;;;;;;2255629;61;2790;-72
2020/12/24 07:51:58;1761991.00;5.87;3146.52;6870.00;0.02;12.53;;;;;26.30;38.20;;;;;;2252272;61;3675;-71
2020/12/24 07:54:29;1853069.00;6.18;3326.86;10860.00;0.04;19.44;;;;;26.30;38.30;;;;;;2253059;61;2374;-71
2020/12/24 07:56:55;2437010.00;8.12;4563.67;537062.00;1.79;925.66;;;;;26.40;38.20;;;;;;2252586;61;3245;-71
2020/12/24 07:59:23;2102404.00;7.01;3836.76;60778.00;0.20;105.82;;;;;26.20;38.40;;;;;;2252700;61;2597;-71
2020/12/24 08:01:49;120109400.00;400.36;70191792.00;13676.00;0.05;24.32;;;;;26.30;38.40;;;;;;2251153;61;4017;-70
2020/12/24 08:04:16;3795690.00;12.65;8199.44;28227.00;0.09;49.51;;;;;26.30;38.30;;;;;;2252485;61;3895;-72
2020/12/24 08:06:43;4118275.00;13.73;9268.47;0.00;0.00;0.62;;;;;26.40;38.20;;;;;;2252628;61;3780;-74
2020/12/24 08:09:17;3480424.00;11.60;7239.52;8658.00;0.03;15.62;;;;;26.40;37.90;;;;;;2246219;61;4115;-70
2020/12/24 08:11:59;3846217.00;12.82;8360.88;40332.00;0.13;70.46;;;;;26.40;37.90;;;;;;2246746;61;2874;-70
2020/12/24 08:14:30;140078176.00;466.93;111394296.00;0.00;0.00;0.62;;;;;26.40;38.00;;;;;;2252709;61;2354;-69
2020/12/24 08:17:29;2974879.00;9.92;5856.01;4876.00;0.02;9.07;;;;;26.40;38.00;;;;;;2254250;61;2627;-71
2020/12/24 08:20:06;3088225.00;10.29;6150.79;26968.00;0.09;47.33;;;;;26.40;38.00;;;;;;2253120;61;2848;-70
2020/12/24 08:22:57;2794505.00;9.32;5403.79;11056.00;0.04;19.78;;;;;26.40;38.00;;;;;;2253426;61;2599;-70
2020/12/24 08:25:23;3466023.00;11.55;7197.54;32633.00;0.11;57.14;;;;;26.40;38.00;;;;;;2254577;61;3584;-71
2020/12/24 08:27:51;1955498.00;6.52;3533.34;0.00;0.00;0.62;;;;;26.20;38.30;;;;;;2254918;61;3945;-69
2020/12/24 08:30:18;2669710.00;8.90;5102.40;17706.00;0.06;31.30;;;;;26.10;37.80;;;;;;2256492;61;3727;-70
2020/12/24 08:32:45;3643930.00;12.15;7727.37;10771.00;0.04;19.28;;;;;26.30;37.20;;;;;;2259083;61;5565;-70
2020/12/24 08:35:14;4212163.00;14.04;9597.28;48646.00;0.16;84.84;;;;;26.20;37.70;;;;;;2255486;61;3256;-71
2020/12/24 08:37:41;3569458.00;11.90;7502.56;15516.00;0.05;27.50;;;;;26.20;37.60;;;;;;2253755;61;3866;-70
2020/12/24 08:40:21;3895083.00;12.98;8519.09;47104.00;0.16;82.18;;;;;26.30;37.60;;;;;;2253282;61;2336;-72
2020/12/24 08:42:48;3701433.00;12.34;7904.01;123695.00;0.41;214.46;;;;;26.30;37.60;;;;;;2250411;61;2522;-70
2020/12/24 08:45:18;3971035.00;13.24;8769.11;43414.00;0.14;75.79;;;;;26.30;37.70;;;;;;2249262;61;3662;-72
2020/12/24 08:47:48;4059787.00;13.53;9067.76;17485.00;0.06;30.91;;;;;26.40;37.70;;;;;;2255717;61;3410;-70
2020/12/24 08:50:27;4076962.00;13.59;9126.38;75239.00;0.25;130.81;;;;;26.30;37.80;;;;;;2253539;61;2288;-71
2020/12/24 08:52:53;2409304.00;8.03;4501.43;9443.00;0.03;16.98;;;;;26.30;38.00;;;;;;2254084;61;3537;-70
2020/12/24 08:55:28;1951928.00;6.51;3526.08;4663.00;0.02;8.70;;;;;26.30;37.80;;;;;;2249576;61;2407;-70
2020/12/24 08:57:55;1191553.00;3.97;2074.96;3762.00;0.01;7.14;;;;;26.40;38.00;;;;;;2258215;61;4516;-74
2020/12/24 09:00:24;821510.00;2.74;1418.66;0.00;0.00;0.62;;;;;26.20;38.00;;;;;;2253912;61;3862;-70
2020/12/24 09:02:51;119783768.00;399.28;69621944.00;2955.00;0.01;5.74;;;;;26.20;38.20;;;;;;2253862;61;2294;-70
2020/12/24 09:05:23;924505.00;3.08;1599.20;12153.00;0.04;21.68;;;;;26.10;38.70;;;;;;2257218;61;4060;-70
2020/12/24 09:07:53;958795.00;3.20;1659.63;0.00;0.00;0.62;;;;;26.00;38.90;;;;;;2255311;61;2263;-70
2020/12/24 09:10:27;1542939.00;5.14;2724.18;84834.00;0.28;147.39;;;;;26.00;39.50;;;;;;2249990;61;3938;-69
2020/12/24 09:13:01;1501283.00;5.00;2645.53;25225.00;0.08;44.32;;;;;26.10;40.50;;;;;;2259193;61;2458;-70
2020/12/24 09:15:28;1296227.00;4.32;2265.20;0.00;0.00;0.62;;;;;26.10;40.70;;;;;;2254564;61;2343;-69
2020/12/24 09:17:57;1827308.00;6.09;3275.55;21130.00;0.07;37.23;;;;;26.10;40.80;;;;;;2259461;61;2292;-70
2020/12/24 09:20:31;2125677.00;7.09;3885.66;7486.00;0.02;13.59;;;;;26.10;40.90;;;;;;2254679;61;2583;-69
2020/12/24 09:22:59;3085278.00;10.28;6143.02;20636.00;0.07;36.37;;;;;26.10;40.80;;;;;;2258865;61;2351;-69
2020/12/24 09:26:00;3937590.00;13.13;8658.39;4810.00;0.02;8.96;;;;;26.10;40.70;;;;;;2254283;61;2307;-70
2020/12/24 09:28:28;3575661.00;11.92;7521.11;23801.00;0.08;41.85;;;;;26.20;40.60;;;;;;2254175;61;2509;-69
2020/12/24 09:31:00;3985037.00;13.28;8815.76;19850.00;0.07;35.01;;;;;26.20;40.50;;;;;;2258843;61;3551;-70